Time;durP1;ratioP1;P1;durP2;ratioP2;P2;SDS_P1;SDS_P2;PMS_P1;PMS_P2;Temp;Humidity;BMP_temperature;BMP_pressure;BME280_temperature;BME280_humidity;BME280_pressure;Samples;Min_cycle;Max_cycle;Signal;HPM_P1;HPM_P2
2022/03/04 00:01:27;;;;;;;32.97;16.65;;;;;;;;;;4910666;29;20913;-71
2022/03/04 00:03:55;;;;;;;28.65;15.82;;;;;;;;;;4907908;29;20107;-71
2022/03/04 00:06:23;;;;;;;29.50;16.55;;;;;;;;;;4905405;29;20450;-71
2022/03/04 00:08:51;;;;;;;24.17;14.70;;;;;;;;;;4911281;29;20059;-72
2022/03/04 00:11:19;;;;;;;27.15;15.88;;;;;;;;;;4917499;29;20075;-71
2022/03/04 00:13:46;;;;;;;27.10;15.23;;;;;;;;;;4907034;29;20096;-72
2022/03/04 00:16:13;;;;;;;29.85;15.82;;;;;;;;;;4910349;29;20051;-71
2022/03/04 00:18:41;;;;;;;29.92;15.02;;;;;;;;;;4913639;29;20458;-71
2022/03/04 00:21:10;;;;;;;28.10;14.27;;;;;;;;;;4900179;29;20067;-71
2022/03/04 00:23:37;;;;;;;27.08;15.27;;;;;;;;;;4907116;29;20135;-71
2022/03/04 00:26:08;;;;;;;25.80;14.85;;;;;;;;;;4924863;29;20051;-72
2022/03/04 00:28:41;;;;;;;24.08;14.02;;;;;;;;;;4906446;29;20070;-71
2022/03/04 00:31:09;;;;;;;27.13;14.20;;;;;;;;;;4907960;29;20161;-71
2022/03/04 00:33:40;;;;;;;27.65;14.55;;;;;;;;;;4902416;29;20048;-71
2022/03/04 00:36:08;;;;;;;27.83;14.02;;;;;;;;;;4904085;29;20143;-71
2022/03/04 00:38:35;;;;;;;23.15;13.35;;;;;;;;;;4903531;29;20052;-71
2022/03/04 00:41:02;;;;;;;26.63;14.63;;;;;;;;;;4916750;29;20056;-72
2022/03/04 00:43:31;;;;;;;26.30;13.82;;;;;;;;;;4904143;29;20059;-71
2022/03/04 00:46:02;;;;;;;28.00;14.40;;;;;;;;;;4903009;29;20044;-71
2022/03/04 00:48:30;;;;;;;23.95;13.65;;;;;;;;;;4911889;29;20078;-71
2022/03/04 00:50:57;;;;;;;24.15;13.55;;;;;;;;;;4906225;29;20088;-71
2022/03/04 00:53:24;;;;;;;25.55;13.50;;;;;;;;;;4909549;29;20048;-71
2022/03/04 00:55:52;;;;;;;22.25;12.85;;;;;;;;;;4910206;29;20091;-71
2022/03/04 00:58:19;;;;;;;23.38;12.98;;;;;;;;;;4907659;29;20067;-71
2022/03/04 01:00:47;;;;;;;23.95;12.93;;;;;;;;;;4903269;29;20070;-71
2022/03/04 01:03:15;;;;;;;22.48;13.05;;;;;;;;;;4909099;29;20573;-71
2022/03/04 01:05:42;;;;;;;22.95;12.32;;;;;;;;;;4905126;29;20089;-71
2022/03/04 01:08:09;;;;;;;20.17;12.52;;;;;;;;;;4905257;29;20052;-71
2022/03/04 01:10:37;;;;;;;19.63;11.95;;;;;;;;;;4903173;29;20104;-71
2022/03/04 01:13:05;;;;;;;25.20;12.98;;;;;;;;;;4901628;29;20056;-71
2022/03/04 01:15:32;;;;;;;25.00;12.70;;;;;;;;;;4902049;29;20074;-71
2022/03/04 01:18:01;;;;;;;26.25;12.55;;;;;;;;;;4906864;29;20479;-71
2022/03/04 01:20:29;;;;;;;26.83;12.80;;;;;;;;;;4901855;29;20066;-71
2022/03/04 01:22:56;;;;;;;22.85;13.25;;;;;;;;;;4899739;29;20060;-71
2022/03/04 01:25:23;;;;;;;24.77;13.00;;;;;;;;;;4902867;29;20059;-71
2022/03/04 01:27:50;;;;;;;23.65;12.88;;;;;;;;;;4897782;29;20127;-71
2022/03/04 01:30:19;;;;;;;25.30;13.10;;;;;;;;;;4902541;29;20048;-71
2022/03/04 01:32:47;;;;;;;20.90;12.40;;;;;;;;;;4899649;29;20483;-71
2022/03/04 01:35:15;;;;;;;22.77;12.60;;;;;;;;;;4900861;29;20056;-71
2022/03/04 01:37:43;;;;;;;31.60;13.27;;;;;;;;;;4902236;29;20067;-71
2022/03/04 01:40:11;;;;;;;22.55;11.55;;;;;;;;;;4907620;29;20709;-71
2022/03/04 01:42:39;;;;;;;25.30;12.65;;;;;;;;;;4900123;29;20056;-72
2022/03/04 01:45:07;;;;;;;24.73;13.45;;;;;;;;;;4901379;29;20479;-73
2022/03/04 01:47:35;;;;;;;25.63;13.77;;;;;;;;;;4905433;29;20062;-71
2022/03/04 01:50:02;;;;;;;28.05;13.90;;;;;;;;;;4901335;29;20055;-71
2022/03/04 01:52:31;;;;;;;26.73;13.82;;;;;;;;;;4902605;29;20055;-72
2022/03/04 01:54:58;;;;;;;28.65;14.45;;;;;;;;;;4903769;29;20047;-71
2022/03/04 01:57:25;;;;;;;28.23;14.20;;;;;;;;;;4899434;29;20051;-71
2022/03/04 01:59:52;;;;;;;23.88;12.82;;;;;;;;;;4904967;29;20063;-71
2022/03/04 02:02:20;;;;;;;23.80;13.23;;;;;;;;;;4904768;29;20048;-71
2022/03/04 02:04:47;;;;;;;24.95;12.82;;;;;;;;;;4903684;29;20375;-72
2022/03/04 02:07:14;;;;;;;25.92;12.43;;;;;;;;;;4903518;29;20059;-71
2022/03/04 02:09:43;;;;;;;24.83;12.60;;;;;;;;;;4902302;29;20131;-71
2022/03/04 02:12:10;;;;;;;24.98;12.68;;;;;;;;;;4899699;29;21042;-71
2022/03/04 02:14:37;;;;;;;21.65;12.38;;;;;;;;;;4900650;29;20498;-71
2022/03/04 02:17:05;;;;;;;30.23;13.88;;;;;;;;;;4899592;29;20086;-71
2022/03/04 02:19:33;;;;;;;22.23;12.27;;;;;;;;;;4904791;29;20074;-71
2022/03/04 02:22:02;;;;;;;24.05;12.65;;;;;;;;;;4908272;29;20056;-72
2022/03/04 02:24:31;;;;;;;28.35;12.50;;;;;;;;;;4903702;29;20054;-71
2022/03/04 02:27:00;;;;;;;22.60;12.80;;;;;;;;;;4900881;29;20079;-71
2022/03/04 02:29:27;;;;;;;23.77;12.57;;;;;;;;;;4920601;29;20043;-72
2022/03/04 02:31:55;;;;;;;25.40;13.02;;;;;;;;;;4900832;29;21359;-71
2022/03/04 02:34:22;;;;;;;25.20;12.88;;;;;;;;;;4905461;29;20491;-71
2022/03/04 02:36:50;;;;;;;25.70;14.55;;;;;;;;;;4902119;29;20055;-71
2022/03/04 02:39:18;;;;;;;24.30;13.38;;;;;;;;;;4900728;29;20044;-71
2022/03/04 02:42:04;;;;;;;26.60;14.02;;;;;;;;;;4906001;29;20067;-71
2022/03/04 02:44:50;;;;;;;28.40;14.32;;;;;;;;;;4890018;29;20079;-71
2022/03/04 02:47:25;;;;;;;29.30;14.45;;;;;;;;;;4900236;29;20070;-71
2022/03/04 02:52:47;;;;;;;28.23;14.23;;;;;;;;;;4903937;29;20059;-71
2022/03/04 02:55:41;;;;;;;27.85;14.35;;;;;;;;;;4894502;29;20052;-71
2022/03/04 02:58:35;;;;;;;28.42;14.45;;;;;;;;;;4901295;29;20753;-71
2022/03/04 03:01:39;;;;;;;26.33;14.35;;;;;;;;;;4884098;29;20095;-71
2022/03/04 03:04:31;;;;;;;29.08;14.75;;;;;;;;;;4898174;29;20139;-71
2022/03/04 03:10:34;;;;;;;28.95;14.80;;;;;;;;;;4883714;29;22385;-71
2022/03/04 03:16:56;;;;;;;24.27;14.13;;;;;;;;;;4895887;29;20056;-71
2022/03/04 03:23:02;;;;;;;33.75;16.17;;;;;;;;;;4896521;29;20122;-71
2022/03/04 03:25:44;;;;;;;32.70;16.08;;;;;;;;;;4899286;29;20063;-71
2022/03/04 03:28:36;;;;;;;30.45;15.20;;;;;;;;;;4883619;29;20063;-71
2022/03/04 03:34:38;;;;;;;33.45;16.83;;;;;;;;;;4901474;29;20894;-71
2022/03/04 03:37:22;;;;;;;32.28;16.20;;;;;;;;;;4889693;29;20052;-71
2022/03/04 03:39:52;;;;;;;36.97;17.90;;;;;;;;;;4929051;28;20570;-71
2022/03/04 03:42:20;;;;;;;30.73;15.50;;;;;;;;;;4902202;29;20060;-71
2022/03/04 03:44:47;;;;;;;39.53;18.52;;;;;;;;;;4895892;29;20059;-71
2022/03/04 03:47:14;;;;;;;34.00;17.33;;;;;;;;;;4902105;29;20052;-71
2022/03/04 03:49:42;;;;;;;32.63;16.25;;;;;;;;;;4901384;29;20071;-71
2022/03/04 03:52:10;;;;;;;35.70;17.73;;;;;;;;;;4902218;29;20083;-71
2022/03/04 03:54:38;;;;;;;34.90;17.30;;;;;;;;;;4902528;29;20620;-71
2022/03/04 03:57:05;;;;;;;31.90;17.05;;;;;;;;;;4906234;29;20055;-71
2022/03/04 03:59:32;;;;;;;31.55;17.10;;;;;;;;;;4912578;29;21399;-71
2022/03/04 04:02:00;;;;;;;31.25;16.48;;;;;;;;;;4911713;29;20500;-71
2022/03/04 04:04:27;;;;;;;39.97;18.70;;;;;;;;;;4905429;29;20056;-71
2022/03/04 04:06:54;;;;;;;36.63;17.60;;;;;;;;;;4907641;29;20060;-71
2022/03/04 04:09:23;;;;;;;39.38;17.65;;;;;;;;;;4909356;29;20067;-71
2022/03/04 04:11:50;;;;;;;35.83;17.33;;;;;;;;;;4912090;29;20054;-71
2022/03/04 04:14:17;;;;;;;36.97;17.13;;;;;;;;;;4909686;29;20135;-71
2022/03/04 04:16:45;;;;;;;36.38;17.45;;;;;;;;;;4908431;29;20047;-71
2022/03/04 04:19:12;;;;;;;35.03;17.08;;;;;;;;;;4901155;29;20059;-71
2022/03/04 04:21:40;;;;;;;40.05;18.15;;;;;;;;;;4902689;29;20127;-71
2022/03/04 04:24:07;;;;;;;37.63;17.40;;;;;;;;;;4903280;29;20052;-71
2022/03/04 04:26:36;;;;;;;37.35;18.25;;;;;;;;;;4905329;29;20703;-71
2022/03/04 04:29:04;;;;;;;36.72;18.23;;;;;;;;;;4906159;29;20059;-71
2022/03/04 04:31:32;;;;;;;36.33;17.15;;;;;;;;;;4905526;29;20063;-71
2022/03/04 04:34:00;;;;;;;31.85;17.48;;;;;;;;;;4903587;29;20055;-71
2022/03/04 04:36:28;;;;;;;41.15;18.25;;;;;;;;;;4910740;29;20518;-71
2022/03/04 04:38:58;;;;;;;37.58;18.25;;;;;;;;;;4906071;29;20063;-71
2022/03/04 04:41:25;;;;;;;38.72;17.70;;;;;;;;;;4902530;29;20078;-71
2022/03/04 04:43:54;;;;;;;44.13;18.60;;;;;;;;;;4906596;29;20067;-71
2022/03/04 04:46:21;;;;;;;37.63;18.23;;;;;;;;;;4908780;29;20480;-71
2022/03/04 04:48:48;;;;;;;36.97;18.23;;;;;;;;;;4905622;29;20048;-71
2022/03/04 04:51:15;;;;;;;36.20;17.77;;;;;;;;;;4908134;29;20047;-71
2022/03/04 04:53:43;;;;;;;36.83;18.10;;;;;;;;;;4907168;29;20078;-71
2022/03/04 04:56:11;;;;;;;36.25;18.63;;;;;;;;;;4904565;29;20161;-71
2022/03/04 04:58:38;;;;;;;38.05;18.42;;;;;;;;;;4905100;29;20060;-72
2022/03/04 05:01:07;;;;;;;38.38;18.70;;;;;;;;;;4904462;29;20173;-71
2022/03/04 05:03:34;;;;;;;35.85;18.40;;;;;;;;;;4910496;29;20087;-71
2022/03/04 05:06:02;;;;;;;42.05;19.27;;;;;;;;;;4900094;29;20059;-71
2022/03/04 05:08:29;;;;;;;41.78;18.20;;;;;;;;;;4916488;29;20052;-71
2022/03/04 05:10:57;;;;;;;41.30;18.38;;;;;;;;;;4901624;29;20071;-71
2022/03/04 05:13:24;;;;;;;36.83;18.55;;;;;;;;;;4899888;29;20055;-71
2022/03/04 05:15:52;;;;;;;38.42;19.00;;;;;;;;;;4908333;29;20048;-72
2022/03/04 05:18:20;;;;;;;39.33;18.88;;;;;;;;;;4906023;29;20055;-71
2022/03/04 05:20:48;;;;;;;42.33;20.08;;;;;;;;;;4937734;28;20071;-71
2022/03/04 05:23:58;;;;;;;46.03;20.17;;;;;;;;;;4908591;29;20431;-71
2022/03/04 05:26:03;;;;;;;43.00;18.65;;;;;;;;;;4912590;29;20100;-71
2022/03/04 05:28:30;;;;;;;37.83;18.48;;;;;;;;;;4905424;29;20059;-71
2022/03/04 05:30:57;;;;;;;41.90;19.25;;;;;;;;;;4908173;29;20501;-71
2022/03/04 05:33:26;;;;;;;39.08;18.33;;;;;;;;;;4906415;29;20142;-71
2022/03/04 05:35:53;;;;;;;38.45;18.27;;;;;;;;;;4905666;29;20055;-71
2022/03/04 05:38:20;;;;;;;41.13;19.27;;;;;;;;;;4903860;29;20100;-71
2022/03/04 05:40:48;;;;;;;39.10;18.42;;;;;;;;;;4902060;29;20059;-71
2022/03/04 05:43:15;;;;;;;43.45;19.75;;;;;;;;;;4905956;29;20116;-71
2022/03/04 05:45:42;;;;;;;41.60;19.83;;;;;;;;;;4905301;29;20047;-71
2022/03/04 05:48:09;;;;;;;42.15;19.15;;;;;;;;;;4902375;29;20063;-72
2022/03/04 05:50:38;;;;;;;40.10;19.48;;;;;;;;;;4905258;29;20123;-71
2022/03/04 05:53:05;;;;;;;44.20;20.27;;;;;;;;;;4909004;29;20052;-71
2022/03/04 05:55:32;;;;;;;41.30;18.92;;;;;;;;;;4901882;29;20243;-71
2022/03/04 05:57:59;;;;;;;42.72;19.25;;;;;;;;;;4905491;29;20056;-71
2022/03/04 06:00:27;;;;;;;40.28;19.63;;;;;;;;;;4904100;29;20107;-71
2022/03/04 06:02:54;;;;;;;39.30;18.88;;;;;;;;;;4905226;29;20052;-71
2022/03/04 06:05:22;;;;;;;37.65;18.23;;;;;;;;;;4900090;29;20048;-71
2022/03/04 06:07:50;;;;;;;38.70;18.33;;;;;;;;;;4904067;29;20059;-71
2022/03/04 06:10:17;;;;;;;41.70;19.45;;;;;;;;;;4896944;29;20056;-71
2022/03/04 06:12:45;;;;;;;41.50;19.40;;;;;;;;;;4901934;29;20422;-71
2022/03/04 06:15:12;;;;;;;41.70;19.50;;;;;;;;;;4922001;29;20053;-71
2022/03/04 06:17:39;;;;;;;41.47;19.20;;;;;;;;;;4904308;29;20047;-71
2022/03/04 06:20:08;;;;;;;43.05;21.08;;;;;;;;;;4907788;29;20571;-71
2022/03/04 06:22:35;;;;;;;39.00;18.42;;;;;;;;;;4905516;29;20048;-71
2022/03/04 06:25:04;;;;;;;42.03;19.48;;;;;;;;;;4902617;29;20056;-71
2022/03/04 06:27:31;;;;;;;44.30;21.05;;;;;;;;;;4906421;29;20058;-71
2022/03/04 06:29:59;;;;;;;44.85;19.73;;;;;;;;;;4909763;29;20047;-71
2022/03/04 06:32:26;;;;;;;43.72;20.20;;;;;;;;;;4904853;29;20466;-71
2022/03/04 06:34:53;;;;;;;45.45;20.02;;;;;;;;;;4906396;29;20044;-71
2022/03/04 06:37:20;;;;;;;47.10;21.17;;;;;;;;;;4919942;29;20123;-71
2022/03/04 06:39:48;;;;;;;44.33;20.00;;;;;;;;;;4921468;29;20078;-71
2022/03/04 06:42:17;;;;;;;43.90;21.55;;;;;;;;;;4915139;29;20502;-71
2022/03/04 06:44:44;;;;;;;45.80;21.80;;;;;;;;;;4902645;29;20062;-71
2022/03/04 06:47:11;;;;;;;48.13;21.42;;;;;;;;;;4907151;29;20052;-71
2022/03/04 06:49:38;;;;;;;44.13;21.70;;;;;;;;;;4912201;29;20502;-71
2022/03/04 06:52:06;;;;;;;43.10;20.33;;;;;;;;;;4903144;29;20066;-71
2022/03/04 06:54:36;;;;;;;48.03;21.58;;;;;;;;;;4904005;29;20067;-71
2022/03/04 06:57:03;;;;;;;50.65;21.90;;;;;;;;;;4909026;29;20047;-71
2022/03/04 06:59:32;;;;;;;46.88;21.25;;;;;;;;;;4924542;29;20091;-71
2022/03/04 07:01:59;;;;;;;47.38;22.15;;;;;;;;;;4910282;29;20110;-71
2022/03/04 07:04:26;;;;;;;57.83;22.98;;;;;;;;;;4915043;29;20495;-71
2022/03/04 07:06:53;;;;;;;49.83;23.40;;;;;;;;;;4908947;29;20062;-71
2022/03/04 07:09:21;;;;;;;62.15;23.92;;;;;;;;;;4906948;29;20108;-71
2022/03/04 07:11:48;;;;;;;58.03;24.10;;;;;;;;;;4909915;29;20051;-71
2022/03/04 07:14:15;;;;;;;53.53;23.13;;;;;;;;;;4904168;29;20535;-71
2022/03/04 07:16:44;;;;;;;58.95;24.88;;;;;;;;;;4911962;29;20055;-71
2022/03/04 07:19:11;;;;;;;54.90;24.15;;;;;;;;;;4904286;29;20044;-71
2022/03/04 07:21:38;;;;;;;55.22;23.98;;;;;;;;;;4903926;29;20067;-71
2022/03/04 07:24:06;;;;;;;47.58;22.42;;;;;;;;;;4905809;29;20055;-71
2022/03/04 07:26:33;;;;;;;49.67;22.85;;;;;;;;;;4901766;29;20056;-71
2022/03/04 07:29:00;;;;;;;52.10;23.63;;;;;;;;;;4898256;29;20488;-71
2022/03/04 07:31:27;;;;;;;52.50;24.40;;;;;;;;;;4907235;29;20146;-71
2022/03/04 07:33:56;;;;;;;49.95;23.23;;;;;;;;;;4901992;29;20067;-71
2022/03/04 07:36:23;;;;;;;49.63;22.98;;;;;;;;;;4899965;29;20058;-71
2022/03/04 07:38:50;;;;;;;48.72;23.52;;;;;;;;;;4902495;29;20071;-71
2022/03/04 07:41:18;;;;;;;48.70;23.80;;;;;;;;;;4899218;29;20044;-71
2022/03/04 07:43:45;;;;;;;45.88;22.35;;;;;;;;;;4899927;29;20059;-71
2022/03/04 07:46:12;;;;;;;49.88;23.10;;;;;;;;;;4903891;29;20055;-71
2022/03/04 07:48:39;;;;;;;50.38;23.98;;;;;;;;;;4900857;29;20060;-71
2022/03/04 07:51:08;;;;;;;52.30;22.92;;;;;;;;;;4903797;29;20104;-71
2022/03/04 07:53:35;;;;;;;53.17;24.45;;;;;;;;;;4902679;29;20628;-71
2022/03/04 07:56:02;;;;;;;49.55;24.73;;;;;;;;;;4899890;29;20813;-71
2022/03/04 07:58:30;;;;;;;71.22;33.83;;;;;;;;;;4901569;29;20065;-71
2022/03/04 08:00:57;;;;;;;79.03;40.70;;;;;;;;;;4901642;29;20115;-71
2022/03/04 08:03:24;;;;;;;66.65;33.70;;;;;;;;;;4900319;29;20059;-71
2022/03/04 08:05:51;;;;;;;70.15;34.80;;;;;;;;;;4909315;29;20060;-71
2022/03/04 08:08:22;;;;;;;53.08;28.05;;;;;;;;;;4908993;29;20056;-71
2022/03/04 08:10:49;;;;;;;52.08;25.40;;;;;;;;;;4901426;29;20502;-71
2022/03/04 08:13:16;;;;;;;51.30;26.75;;;;;;;;;;4902937;29;20059;-71
2022/03/04 08:15:44;;;;;;;52.38;25.13;;;;;;;;;;4899057;29;20793;-71
2022/03/04 08:18:11;;;;;;;49.70;24.60;;;;;;;;;;4900975;29;20056;-71
2022/03/04 08:20:39;;;;;;;47.20;24.65;;;;;;;;;;4904022;29;20171;-71
2022/03/04 08:23:06;;;;;;;53.58;26.92;;;;;;;;;;4897879;29;20065;-71
2022/03/04 08:25:35;;;;;;;60.60;30.30;;;;;;;;;;4902844;29;20075;-71
2022/03/04 08:28:02;;;;;;;65.25;36.55;;;;;;;;;;4906395;29;20103;-72
2022/03/04 08:30:29;;;;;;;57.35;30.08;;;;;;;;;;4899694;29;20063;-71
2022/03/04 08:32:56;;;;;;;61.63;25.35;;;;;;;;;;4901104;29;20059;-71
2022/03/04 08:35:24;;;;;;;76.35;29.73;;;;;;;;;;4918222;29;20054;-71
2022/03/04 08:37:52;;;;;;;46.67;25.23;;;;;;;;;;4898047;29;20483;-71
2022/03/04 08:40:19;;;;;;;45.65;22.92;;;;;;;;;;4899392;29;20063;-71
2022/03/04 08:42:48;;;;;;;49.72;24.58;;;;;;;;;;4901505;29;20444;-71
2022/03/04 08:45:16;;;;;;;44.25;24.75;;;;;;;;;;4898107;29;20063;-71
2022/03/04 08:47:44;;;;;;;46.50;23.98;;;;;;;;;;4896679;29;20068;-71
2022/03/04 08:50:12;;;;;;;47.97;23.75;;;;;;;;;;4903758;29;20131;-71
2022/03/04 08:52:39;;;;;;;47.53;24.27;;;;;;;;;;4898817;29;20083;-71
2022/03/04 08:55:13;;;;;;;49.50;25.90;;;;;;;;;;4895013;29;20067;-71
2022/03/04 08:57:41;;;;;;;44.38;23.90;;;;;;;;;;4895775;29;20152;-71
2022/03/04 09:00:10;;;;;;;47.08;24.73;;;;;;;;;;4896402;29;20066;-71
2022/03/04 09:02:38;;;;;;;43.05;23.50;;;;;;;;;;4897268;29;20555;-71
2022/03/04 09:05:06;;;;;;;41.60;24.65;;;;;;;;;;4904492;29;20052;-71
2022/03/04 09:07:33;;;;;;;49.45;24.83;;;;;;;;;;4915517;29;20586;-71
2022/03/04 09:10:01;;;;;;;42.42;24.05;;;;;;;;;;4908442;29;20052;-71
2022/03/04 09:12:28;;;;;;;48.13;25.80;;;;;;;;;;4904454;29;20048;-71
2022/03/04 09:14:55;;;;;;;42.53;23.60;;;;;;;;;;4894988;29;20054;-71
2022/03/04 09:17:24;;;;;;;39.17;22.48;;;;;;;;;;4920861;29;20222;-71
2022/03/04 09:19:51;;;;;;;47.85;27.40;;;;;;;;;;4900117;29;20138;-71
2022/03/04 09:22:19;;;;;;;42.03;25.10;;;;;;;;;;4905957;29;20051;-71
2022/03/04 09:24:46;;;;;;;48.08;26.33;;;;;;;;;;4903976;29;20071;-71
2022/03/04 09:27:14;;;;;;;49.20;28.23;;;;;;;;;;4906412;29;20051;-71
2022/03/04 09:29:41;;;;;;;52.47;30.60;;;;;;;;;;4899745;29;21209;-71
2022/03/04 09:32:09;;;;;;;47.95;26.85;;;;;;;;;;4903136;29;20059;-71
2022/03/04 09:34:37;;;;;;;41.88;24.63;;;;;;;;;;4930487;28;20111;-71
2022/03/04 09:37:05;;;;;;;46.65;26.88;;;;;;;;;;4898893;29;20047;-71
2022/03/04 09:39:32;;;;;;;48.38;27.80;;;;;;;;;;4900399;29;20059;-71
2022/03/04 09:42:00;;;;;;;49.00;26.40;;;;;;;;;;4897115;29;20055;-71
2022/03/04 09:44:27;;;;;;;45.13;25.88;;;;;;;;;;4905526;29;20060;-71
2022/03/04 09:46:56;;;;;;;41.63;24.90;;;;;;;;;;4916836;29;20510;-71
2022/03/04 09:49:23;;;;;;;40.45;24.40;;;;;;;;;;4899016;29;20059;-71
2022/03/04 09:51:52;;;;;;;42.53;24.98;;;;;;;;;;4904103;29;20510;-71
2022/03/04 09:54:19;;;;;;;45.97;26.50;;;;;;;;;;4904343;29;20059;-71
2022/03/04 09:56:46;;;;;;;47.30;27.45;;;;;;;;;;4905772;29;20096;-71
2022/03/04 09:59:14;;;;;;;50.35;28.88;;;;;;;;;;4906793;29;20418;-72
2022/03/04 10:01:41;;;;;;;45.47;26.40;;;;;;;;;;4901999;29;20060;-71
2022/03/04 10:04:08;;;;;;;46.22;27.42;;;;;;;;;;4901681;29;20047;-72
2022/03/04 10:06:38;;;;;;;42.90;25.23;;;;;;;;;;4908106;29;20063;-71
2022/03/04 10:09:07;;;;;;;41.28;25.20;;;;;;;;;;4910763;29;20054;-72
2022/03/04 10:11:36;;;;;;;44.47;25.58;;;;;;;;;;4904630;29;20056;-72
2022/03/04 10:14:07;;;;;;;48.13;25.30;;;;;;;;;;4908093;29;20060;-72
2022/03/04 10:16:35;;;;;;;50.47;27.95;;;;;;;;;;4905511;29;20486;-72
2022/03/04 10:19:10;;;;;;;47.10;28.30;;;;;;;;;;4904608;29;20062;-72
2022/03/04 10:21:51;;;;;;;42.72;27.27;;;;;;;;;;4905947;29;20055;-72
2022/03/04 10:24:20;;;;;;;49.55;27.83;;;;;;;;;;4914073;29;20062;-72
2022/03/04 10:26:48;;;;;;;44.30;27.05;;;;;;;;;;4910119;29;20075;-72
2022/03/04 10:29:19;;;;;;;38.92;24.38;;;;;;;;;;4913450;29;20155;-72
2022/03/04 10:32:01;;;;;;;41.67;25.55;;;;;;;;;;4901524;29;20071;-72
2022/03/04 10:34:28;;;;;;;39.35;24.70;;;;;;;;;;4904465;29;20071;-72
2022/03/04 10:36:56;;;;;;;38.33;25.13;;;;;;;;;;4913915;29;20092;-72
2022/03/04 10:39:24;;;;;;;38.45;25.23;;;;;;;;;;4899476;29;20494;-72
2022/03/04 10:41:52;;;;;;;35.65;24.38;;;;;;;;;;4898320;29;20058;-72
2022/03/04 10:44:26;;;;;;;37.90;24.23;;;;;;;;;;4898467;29;20060;-72
2022/03/04 10:46:56;;;;;;;38.50;24.80;;;;;;;;;;4898830;29;20518;-71
2022/03/04 10:49:25;;;;;;;37.67;23.05;;;;;;;;;;4910517;29;20052;-72
2022/03/04 10:51:53;;;;;;;37.72;23.33;;;;;;;;;;4899139;29;20486;-72
2022/03/04 10:54:20;;;;;;;34.80;23.48;;;;;;;;;;4894052;29;20056;-72
2022/03/04 10:56:54;;;;;;;37.97;24.02;;;;;;;;;;4896492;29;20479;-72
2022/03/04 10:59:22;;;;;;;40.53;25.50;;;;;;;;;;4892711;29;20799;-72
2022/03/04 11:01:49;;;;;;;33.35;22.98;;;;;;;;;;4912096;29;20060;-72
2022/03/04 11:04:20;;;;;;;33.92;22.65;;;;;;;;;;4896231;29;20066;-72
2022/03/04 11:06:48;;;;;;;31.40;20.88;;;;;;;;;;4896021;29;20048;-72
2022/03/04 11:09:16;;;;;;;30.35;20.25;;;;;;;;;;4894628;29;20656;-72
2022/03/04 11:11:44;;;;;;;33.67;21.08;;;;;;;;;;4897234;29;20252;-72
2022/03/04 11:14:13;;;;;;;34.25;20.75;;;;;;;;;;4900563;29;20082;-72
2022/03/04 11:16:41;;;;;;;39.88;25.20;;;;;;;;;;4902707;29;20090;-72
2022/03/04 11:19:08;;;;;;;48.17;30.73;;;;;;;;;;4898002;29;20111;-72
2022/03/04 11:21:36;;;;;;;29.20;20.10;;;;;;;;;;4899349;29;20047;-72
2022/03/04 11:24:03;;;;;;;31.52;21.45;;;;;;;;;;4897819;29;20063;-72
2022/03/04 11:26:32;;;;;;;28.73;19.42;;;;;;;;;;4896589;29;20214;-72
2022/03/04 11:29:02;;;;;;;29.17;19.25;;;;;;;;;;4897903;29;20051;-72
2022/03/04 11:31:31;;;;;;;26.13;17.95;;;;;;;;;;4895876;29;20055;-72
2022/03/04 11:34:00;;;;;;;28.38;19.30;;;;;;;;;;4897649;29;20052;-72
2022/03/04 11:36:29;;;;;;;27.02;17.95;;;;;;;;;;4899893;29;20071;-72
2022/03/04 11:39:01;;;;;;;27.77;18.65;;;;;;;;;;4896452;29;20147;-72
2022/03/04 11:41:34;;;;;;;25.10;17.33;;;;;;;;;;4897906;29;20410;-72
2022/03/04 11:44:01;;;;;;;;;;;;;;;;;;4899567;29;20140;-72
2022/03/04 11:46:29;;;;;;;28.15;18.08;;;;;;;;;;4897602;29;20429;-73
2022/03/04 11:49:15;;;;;;;25.63;17.63;;;;;;;;;;4894342;29;20060;-73
2022/03/04 11:52:08;;;;;;;26.98;19.00;;;;;;;;;;4897858;29;20067;-72
2022/03/04 11:54:36;;;;;;;23.92;17.83;;;;;;;;;;4901640;29;20079;-72
2022/03/04 11:57:16;;;;;;;22.75;16.63;;;;;;;;;;4899805;29;20048;-72
2022/03/04 11:59:49;;;;;;;21.25;14.63;;;;;;;;;;4897365;29;20095;-72
2022/03/04 12:02:19;;;;;;;19.48;13.73;;;;;;;;;;4894880;29;20059;-72
2022/03/04 12:04:47;;;;;;;19.95;13.77;;;;;;;;;;4897999;29;20044;-73
2022/03/04 12:07:15;;;;;;;19.10;13.43;;;;;;;;;;4908023;29;20044;-72
2022/03/04 12:09:49;;;;;;;18.77;14.02;;;;;;;;;;4905229;29;20063;-72
2022/03/04 12:12:18;;;;;;;18.70;12.80;;;;;;;;;;4904315;29;20067;-72
2022/03/04 12:14:49;;;;;;;18.00;13.68;;;;;;;;;;4902786;29;20064;-72
2022/03/04 12:17:17;;;;;;;14.90;12.20;;;;;;;;;;4906175;29;20079;-72
2022/03/04 12:19:45;;;;;;;15.25;12.43;;;;;;;;;;4908063;29;20456;-72
2022/03/04 12:22:13;;;;;;;13.85;10.85;;;;;;;;;;4901513;29;20054;-72
2022/03/04 12:24:52;;;;;;;14.15;11.65;;;;;;;;;;4906025;29;20067;-72
2022/03/04 12:27:35;;;;;;;18.75;11.43;;;;;;;;;;4905780;29;20047;-72
2022/03/04 12:30:16;;;;;;;14.63;11.43;;;;;;;;;;4907606;29;20139;-72
2022/03/04 12:32:47;;;;;;;14.05;11.13;;;;;;;;;;4909184;29;20119;-72
2022/03/04 12:35:16;;;;;;;14.35;10.85;;;;;;;;;;4901740;29;20499;-72
2022/03/04 12:37:43;;;;;;;14.65;10.27;;;;;;;;;;4907843;29;20052;-72
2022/03/04 12:40:14;;;;;;;13.15;10.43;;;;;;;;;;4921649;29;20131;-72
2022/03/04 12:42:51;;;;;;;11.57;9.82;;;;;;;;;;4904912;29;20067;-72
2022/03/04 12:45:18;;;;;;;12.20;9.80;;;;;;;;;;4905744;29;20079;-72
2022/03/04 12:47:46;;;;;;;14.13;10.18;;;;;;;;;;4908602;29;20100;-73
2022/03/04 12:50:13;;;;;;;11.80;9.90;;;;;;;;;;4909898;29;20052;-73
2022/03/04 12:52:40;;;;;;;12.77;9.90;;;;;;;;;;4908592;29;20055;-73
2022/03/04 12:55:09;;;;;;;16.58;9.93;;;;;;;;;;4909534;29;20502;-73
2022/03/04 12:57:40;;;;;;;13.15;9.60;;;;;;;;;;4910109;29;20050;-73
2022/03/04 13:00:08;;;;;;;12.02;9.60;;;;;;;;;;4907291;29;20052;-73
2022/03/04 13:02:35;;;;;;;13.63;9.25;;;;;;;;;;4911470;29;20054;-73
2022/03/04 13:05:03;;;;;;;12.10;8.93;;;;;;;;;;4907594;29;20059;-73
2022/03/04 13:07:31;;;;;;;12.23;9.25;;;;;;;;;;4900584;29;20044;-73
2022/03/04 13:09:58;;;;;;;11.90;9.35;;;;;;;;;;4907591;29;20052;-73
2022/03/04 13:12:26;;;;;;;12.43;8.63;;;;;;;;;;4903468;29;20127;-73
2022/03/04 13:15:07;;;;;;;12.23;9.20;;;;;;;;;;4909603;29;20063;-73
2022/03/04 13:17:35;;;;;;;12.18;9.88;;;;;;;;;;4907182;29;20055;-73
2022/03/04 13:20:05;;;;;;;12.73;8.77;;;;;;;;;;4901834;29;20048;-71
2022/03/04 13:22:33;;;;;;;11.18;9.23;;;;;;;;;;4905769;29;20060;-71
2022/03/04 13:25:00;;;;;;;13.57;9.35;;;;;;;;;;4905433;29;20059;-71
2022/03/04 13:27:37;;;;;;;11.23;9.25;;;;;;;;;;4908071;29;20521;-71
2022/03/04 13:30:06;;;;;;;12.55;9.90;;;;;;;;;;4904914;29;20062;-71
2022/03/04 13:32:33;;;;;;;12.30;9.63;;;;;;;;;;4909324;29;20055;-71
2022/03/04 13:35:01;;;;;;;12.98;10.73;;;;;;;;;;4905684;29;20059;-73
2022/03/04 13:37:29;;;;;;;12.35;10.55;;;;;;;;;;4910291;29;20044;-73
2022/03/04 13:39:58;;;;;;;13.30;11.15;;;;;;;;;;4909142;29;20055;-73
2022/03/04 13:42:26;;;;;;;12.73;10.73;;;;;;;;;;4906882;29;20071;-73
2022/03/04 13:44:55;;;;;;;13.45;10.75;;;;;;;;;;4907199;29;20058;-74
2022/03/04 13:47:34;;;;;;;11.07;9.48;;;;;;;;;;4910243;29;21437;-74
2022/03/04 13:50:02;;;;;;;10.95;9.30;;;;;;;;;;4901343;29;20060;-73
2022/03/04 13:52:29;;;;;;;13.63;9.60;;;;;;;;;;4908152;29;20086;-74
2022/03/04 13:55:00;;;;;;;10.25;8.93;;;;;;;;;;4899773;29;20068;-73
2022/03/04 13:57:28;;;;;;;10.32;8.77;;;;;;;;;;4897608;29;20060;-74
2022/03/04 13:59:56;;;;;;;11.32;8.95;;;;;;;;;;4899599;29;20047;-74
2022/03/04 14:02:26;;;;;;;11.02;9.27;;;;;;;;;;4897184;29;20060;-74
2022/03/04 14:04:55;;;;;;;12.85;9.35;;;;;;;;;;4898107;29;20059;-72
2022/03/04 14:07:22;;;;;;;10.88;9.40;;;;;;;;;;4902688;29;20060;-72
2022/03/04 14:09:54;;;;;;;10.27;9.18;;;;;;;;;;4904062;29;20107;-72
2022/03/04 14:12:22;;;;;;;10.17;8.80;;;;;;;;;;4903828;29;20059;-71
2022/03/04 14:14:49;;;;;;;10.98;9.10;;;;;;;;;;4906547;29;20071;-72
2022/03/04 14:17:17;;;;;;;9.68;8.10;;;;;;;;;;4907648;29;20126;-71
2022/03/04 14:19:44;;;;;;;14.30;10.23;;;;;;;;;;4904861;29;20062;-71
2022/03/04 14:22:12;;;;;;;10.57;9.48;;;;;;;;;;4912086;29;20067;-71
2022/03/04 14:24:40;;;;;;;10.25;9.15;;;;;;;;;;4901818;29;20551;-71
2022/03/04 14:27:07;;;;;;;10.32;9.20;;;;;;;;;;4905688;29;20056;-72
2022/03/04 14:29:34;;;;;;;11.38;9.60;;;;;;;;;;4906586;29;20058;-72
2022/03/04 14:32:01;;;;;;;12.38;9.38;;;;;;;;;;4905987;29;20055;-72
2022/03/04 14:34:30;;;;;;;12.60;9.20;;;;;;;;;;4900251;29;20395;-72
2022/03/04 14:36:57;;;;;;;11.38;8.30;;;;;;;;;;4904218;29;20103;-72
2022/03/04 14:39:26;;;;;;;9.95;8.95;;;;;;;;;;4897901;29;20452;-72
2022/03/04 14:41:53;;;;;;;10.63;9.05;;;;;;;;;;4902396;29;20058;-72
2022/03/04 14:44:21;;;;;;;9.45;8.38;;;;;;;;;;4904276;29;20051;-73
2022/03/04 14:46:48;;;;;;;10.73;9.27;;;;;;;;;;4904722;29;20055;-72